createdAt,value
2023-03-30T00:00:18.417Z,2.35
2023-03-30T00:02:47.710Z,2.60
2023-03-30T00:05:16.122Z,2.30
2023-03-30T00:07:45.933Z,2.35
2023-03-30T00:12:43.615Z,2.45
2023-03-30T00:15:12.614Z,2.17
2023-03-30T00:17:41.406Z,2.15
2023-03-30T00:20:11.741Z,2.13
2023-03-30T00:22:42.297Z,2.30
2023-03-30T00:25:12.449Z,2.17
2023-03-30T00:27:41.156Z,2.10
2023-03-30T00:30:10.846Z,1.98
2023-03-30T00:32:39.009Z,2.00
2023-03-30T00:35:07.257Z,2.63
2023-03-30T00:37:37.779Z,2.33
2023-03-30T00:40:08.103Z,2.10
2023-03-30T00:42:39.015Z,2.17
2023-03-30T00:45:10.981Z,2.08
2023-03-30T00:47:42.459Z,1.95
2023-03-30T00:50:10.836Z,2.30
2023-03-30T00:52:40.257Z,2.30
2023-03-30T00:55:09.701Z,2.10
2023-03-30T00:57:39.910Z,2.35
2023-03-30T01:00:12.271Z,1.90
2023-03-30T01:02:46.070Z,1.75
2023-03-30T01:05:14.881Z,1.92
2023-03-30T01:07:43.704Z,2.00
2023-03-30T01:10:12.684Z,2.00
2023-03-30T01:12:42.589Z,1.85
2023-03-30T01:17:43.790Z,2.05
2023-03-30T01:20:29.574Z,2.15
2023-03-30T01:23:12.858Z,1.98
2023-03-30T01:25:56.853Z,1.90
2023-03-30T01:28:30.987Z,2.13
2023-03-30T01:31:09.137Z,2.20
2023-03-30T01:34:01.453Z,1.73
2023-03-30T01:36:42.224Z,1.70
2023-03-30T01:39:19.311Z,1.70
2023-03-30T01:41:51.773Z,2.15
2023-03-30T01:44:24.083Z,2.05
2023-03-30T01:46:55.785Z,1.98
2023-03-30T01:49:27.589Z,2.08
2023-03-30T01:51:59.930Z,2.30
2023-03-30T01:54:31.960Z,2.00
2023-03-30T01:57:02.405Z,1.95
2023-03-30T01:59:32.694Z,2.05
2023-03-30T02:02:04.652Z,2.13
2023-03-30T02:04:36.161Z,1.77
2023-03-30T02:07:08.158Z,1.75
2023-03-30T02:09:38.895Z,1.77
2023-03-30T02:12:07.136Z,1.98
2023-03-30T02:14:37.090Z,2.03
2023-03-30T02:19:34.433Z,2.40
2023-03-30T02:22:02.297Z,2.47
2023-03-30T02:24:32.002Z,2.30
2023-03-30T02:27:03.299Z,2.58
2023-03-30T02:29:31.775Z,2.38
2023-03-30T02:32:01.597Z,2.70
2023-03-30T02:34:40.998Z,2.30
2023-03-30T02:37:16.064Z,2.40
2023-03-30T02:39:50.971Z,3.05
2023-03-30T02:42:26.656Z,2.63
2023-03-30T02:45:01.192Z,2.60
2023-03-30T02:47:32.940Z,2.63
2023-03-30T02:50:03.337Z,2.78
2023-03-30T02:52:38.490Z,2.60
2023-03-30T02:55:12.516Z,2.72
2023-03-30T02:57:51.131Z,2.38
2023-03-30T03:00:44.739Z,2.30
2023-03-30T03:03:21.268Z,2.30
2023-03-30T03:05:55.133Z,2.00
2023-03-30T03:08:32.420Z,2.13
2023-03-30T03:11:03.302Z,2.00
2023-03-30T03:13:33.594Z,1.80
2023-03-30T03:16:04.215Z,2.08
2023-03-30T03:18:35.449Z,1.90
2023-03-30T03:21:03.367Z,1.92
2023-03-30T03:23:31.574Z,1.73
2023-03-30T03:26:00.741Z,1.83
2023-03-30T03:28:30.126Z,2.00
2023-03-30T03:31:08.225Z,1.77
2023-03-30T03:33:36.330Z,1.92
2023-03-30T03:36:12.722Z,1.80
2023-03-30T03:38:47.351Z,1.77
2023-03-30T03:41:17.308Z,1.90
2023-03-30T03:43:45.416Z,1.73
2023-03-30T03:46:17.456Z,1.83
2023-03-30T03:48:46.795Z,1.85
2023-03-30T03:51:14.587Z,1.90
2023-03-30T03:53:43.633Z,1.92
2023-03-30T03:56:14.841Z,1.85
2023-03-30T03:58:43.236Z,1.70
2023-03-30T04:01:14.453Z,1.60
2023-03-30T04:03:44.891Z,1.60
2023-03-30T04:06:12.660Z,2.33
2023-03-30T04:08:41.033Z,1.50
2023-03-30T04:11:24.736Z,1.90
2023-03-30T04:14:11.790Z,1.90
2023-03-30T04:16:59.606Z,1.40
2023-03-30T04:20:05.944Z,1.40
2023-03-30T04:22:55.579Z,1.92
2023-03-30T04:25:33.036Z,1.50
2023-03-30T04:28:22.285Z,1.58
2023-03-30T04:30:52.729Z,1.35
2023-03-30T04:33:47.404Z,1.70
2023-03-30T04:36:43.416Z,1.40
2023-03-30T04:39:42.107Z,1.27
2023-03-30T04:42:22.769Z,1.63
2023-03-30T04:45:09.126Z,1.85
2023-03-30T04:47:49.968Z,1.75
2023-03-30T04:50:36.974Z,1.52
2023-03-30T04:53:33.038Z,1.60
2023-03-30T04:56:20.532Z,1.85
2023-03-30T04:59:00.797Z,1.45
2023-03-30T05:01:47.211Z,1.63
2023-03-30T05:04:20.942Z,1.48
2023-03-30T05:07:09.375Z,1.95
2023-03-30T05:10:00.449Z,1.55
2023-03-30T05:12:44.538Z,1.63
2023-03-30T05:15:17.870Z,1.52
2023-03-30T05:17:46.586Z,1.98
2023-03-30T05:20:32.878Z,1.77
2023-03-30T05:23:21.565Z,1.50
2023-03-30T05:26:09.464Z,1.83
2023-03-30T05:28:48.256Z,1.65
2023-03-30T05:31:23.545Z,1.63
2023-03-30T05:34:12.223Z,1.55
2023-03-30T05:36:46.178Z,1.70
2023-03-30T05:39:30.443Z,1.65
2023-03-30T05:42:14.382Z,1.58
2023-03-30T05:44:51.614Z,1.42
2023-03-30T05:47:19.495Z,2.28
2023-03-30T05:50:03.939Z,1.90
2023-03-30T05:52:58.071Z,2.10
2023-03-30T05:55:46.449Z,1.58
2023-03-30T05:58:34.403Z,1.40
2023-03-30T06:01:21.376Z,1.40
2023-03-30T06:03:50.999Z,1.50
2023-03-30T06:06:19.168Z,0.98
2023-03-30T06:08:51.734Z,1.50
2023-03-30T06:11:23.395Z,1.20
2023-03-30T06:14:02.379Z,1.50
2023-03-30T06:16:49.708Z,1.48
2023-03-30T06:19:19.312Z,1.40
2023-03-30T06:21:47.680Z,1.13
2023-03-30T06:24:38.432Z,1.17
2023-03-30T06:27:09.414Z,1.23
2023-03-30T06:29:39.778Z,1.20
2023-03-30T06:32:08.420Z,1.30
2023-03-30T06:35:07.043Z,1.60
2023-03-30T06:37:36.275Z,1.20
2023-03-30T06:40:13.639Z,1.20
2023-03-30T06:42:44.706Z,1.40
2023-03-30T06:45:22.922Z,1.40
2023-03-30T06:47:50.788Z,1.60
2023-03-30T06:50:18.641Z,1.40
2023-03-30T06:53:02.173Z,1.25
2023-03-30T06:55:36.935Z,1.75
2023-03-30T06:58:05.896Z,1.70
2023-03-30T07:00:35.403Z,1.50
2023-03-30T07:03:21.879Z,1.50
2023-03-30T07:06:08.920Z,1.60
2023-03-30T07:08:40.300Z,1.33
2023-03-30T07:11:11.989Z,1.20
2023-03-30T07:13:41.739Z,1.58
2023-03-30T07:16:11.463Z,1.60
2023-03-30T07:18:39.215Z,1.25
2023-03-30T07:21:07.319Z,1.90
2023-03-30T07:23:40.489Z,1.60
2023-03-30T07:26:09.805Z,1.60
2023-03-30T07:28:45.734Z,2.03
2023-03-30T07:31:17.222Z,1.80
2023-03-30T07:33:46.095Z,1.65
2023-03-30T07:36:18.825Z,1.80
2023-03-30T07:38:47.344Z,2.03
2023-03-30T07:41:16.225Z,2.20
2023-03-30T07:43:48.610Z,2.28
2023-03-30T07:46:17.833Z,1.67
2023-03-30T07:48:49.290Z,2.10
2023-03-30T07:51:17.911Z,2.05
2023-03-30T07:53:54.440Z,1.48
2023-03-30T07:56:28.974Z,1.65
2023-03-30T07:59:01.935Z,1.75
2023-03-30T08:01:36.272Z,2.47
2023-03-30T08:04:08.145Z,1.90
2023-03-30T08:06:37.263Z,2.00
2023-03-30T08:09:05.069Z,1.80
2023-03-30T08:11:36.207Z,1.30
2023-03-30T08:14:04.462Z,1.75
2023-03-30T08:16:32.246Z,1.70
2023-03-30T08:19:02.336Z,1.13
2023-03-30T08:21:30.555Z,1.40
2023-03-30T08:23:59.348Z,1.70
2023-03-30T08:26:28.293Z,1.73
2023-03-30T08:28:57.378Z,1.80
2023-03-30T08:31:26.047Z,1.33
2023-03-30T08:33:54.717Z,1.35
2023-03-30T08:36:23.822Z,1.90
2023-03-30T08:38:52.092Z,1.40
2023-03-30T08:41:45.033Z,1.27
2023-03-30T08:44:21.148Z,1.35
2023-03-30T08:46:51.324Z,1.30
2023-03-30T08:51:50.230Z,1.40
2023-03-30T08:54:19.974Z,1.30
2023-03-30T08:56:51.604Z,1.42
2023-03-30T08:59:22.253Z,1.60
2023-03-30T09:01:53.426Z,1.30
2023-03-30T09:04:24.826Z,1.30
2023-03-30T09:06:55.822Z,1.35
2023-03-30T09:09:24.732Z,1.50
2023-03-30T09:11:55.793Z,1.80
2023-03-30T09:14:27.503Z,2.28
2023-03-30T09:16:58.529Z,1.48
2023-03-30T09:19:32.184Z,1.75
2023-03-30T09:22:06.335Z,1.98
2023-03-30T09:24:34.637Z,1.15
2023-03-30T09:27:04.050Z,1.02
2023-03-30T09:32:04.148Z,1.45
2023-03-30T09:34:54.417Z,1.65
2023-03-30T09:37:23.594Z,1.50
2023-03-30T09:39:51.722Z,1.73
2023-03-30T09:42:28.128Z,1.73
2023-03-30T09:44:57.153Z,1.98
2023-03-30T09:47:26.956Z,1.90
2023-03-30T09:52:25.373Z,1.88
2023-03-30T09:54:53.748Z,1.83
2023-03-30T09:57:24.749Z,1.83
2023-03-30T09:59:56.250Z,1.10
2023-03-30T10:02:29.162Z,1.40
2023-03-30T10:05:00.678Z,1.50
2023-03-30T10:07:31.831Z,1.33
2023-03-30T10:10:04.174Z,1.20
2023-03-30T10:12:32.159Z,1.20
2023-03-30T10:15:02.487Z,1.55
2023-03-30T10:17:33.043Z,1.48
2023-03-30T10:20:34.215Z,1.63
2023-03-30T10:23:06.080Z,1.98
2023-03-30T10:25:34.909Z,1.48
2023-03-30T10:28:07.120Z,1.67
2023-03-30T10:30:34.988Z,1.83
2023-03-30T10:33:03.535Z,1.60
2023-03-30T10:35:35.037Z,1.77
2023-03-30T10:38:05.107Z,2.10
2023-03-30T10:40:35.425Z,2.42
2023-03-30T10:45:36.336Z,1.45
2023-03-30T10:48:17.902Z,1.40
2023-03-30T10:50:53.280Z,1.40
2023-03-30T10:53:30.591Z,1.45
2023-03-30T10:56:03.529Z,1.55
2023-03-30T10:58:38.819Z,1.27
2023-03-30T11:01:12.896Z,1.30
2023-03-30T11:03:45.754Z,1.30
2023-03-30T11:06:16.440Z,1.38
2023-03-30T11:08:47.878Z,1.58
2023-03-30T11:11:19.462Z,1.63
2023-03-30T11:13:51.062Z,1.23
2023-03-30T11:16:21.714Z,1.35
2023-03-30T11:18:53.121Z,1.17
2023-03-30T11:21:22.520Z,1.10
2023-03-30T11:23:53.685Z,1.65
2023-03-30T11:26:24.135Z,1.00
2023-03-30T11:28:56.427Z,0.98
2023-03-30T11:31:30.469Z,1.70
2023-03-30T11:34:04.054Z,0.95
2023-03-30T11:36:35.500Z,0.95
2023-03-30T11:39:09.268Z,0.90
2023-03-30T11:41:41.800Z,0.70
2023-03-30T11:44:11.083Z,0.70
2023-03-30T11:47:06.760Z,0.90
2023-03-30T11:49:43.474Z,0.93
2023-03-30T11:52:18.324Z,0.70
2023-03-30T11:55:02.830Z,0.98
2023-03-30T11:57:36.029Z,1.17
2023-03-30T12:00:10.692Z,0.75
2023-03-30T12:02:45.584Z,0.70
2023-03-30T12:05:18.232Z,1.75
2023-03-30T12:07:52.190Z,1.05
2023-03-30T12:10:25.342Z,1.38
2023-03-30T12:12:56.413Z,1.20
2023-03-30T12:15:28.965Z,1.15
2023-03-30T12:17:59.705Z,1.10
2023-03-30T12:20:35.095Z,1.40
2023-03-30T12:23:05.820Z,1.40
2023-03-30T12:25:40.251Z,0.98
2023-03-30T12:28:12.337Z,1.30
2023-03-30T12:30:45.541Z,1.17
2023-03-30T12:33:18.305Z,1.63
2023-03-30T12:35:52.229Z,1.10
2023-03-30T12:38:23.645Z,1.70
2023-03-30T12:40:56.977Z,1.55
2023-03-30T12:43:29.407Z,1.60
2023-03-30T12:46:03.532Z,1.55
2023-03-30T12:48:37.676Z,1.50
2023-03-30T12:51:10.835Z,1.20
2023-03-30T12:54:04.142Z,1.42
2023-03-30T12:56:38.431Z,1.20
2023-03-30T12:59:24.166Z,1.38
2023-03-30T13:02:01.891Z,1.33
2023-03-30T13:04:30.772Z,1.63
2023-03-30T13:06:59.577Z,1.55
2023-03-30T13:09:36.271Z,1.67
2023-03-30T13:12:22.215Z,2.53
2023-03-30T13:14:57.624Z,1.77
2023-03-30T13:17:27.089Z,1.90
2023-03-30T13:20:26.168Z,1.40
2023-03-30T13:23:02.962Z,1.27
2023-03-30T13:25:38.912Z,1.05
2023-03-30T13:28:21.751Z,1.50
2023-03-30T13:30:50.963Z,1.75
2023-03-30T13:33:20.263Z,1.35
2023-03-30T13:35:58.061Z,1.97
2023-03-30T13:38:31.364Z,1.30
2023-03-30T13:41:05.443Z,1.75
2023-03-30T13:43:47.252Z,1.80
2023-03-30T13:46:20.974Z,1.83
2023-03-30T13:48:57.036Z,1.60
2023-03-30T13:51:27.821Z,2.13
2023-03-30T13:53:58.717Z,2.10
2023-03-30T13:56:27.910Z,2.38
2023-03-30T13:58:59.972Z,2.05
2023-03-30T14:01:29.645Z,2.47
2023-03-30T14:03:58.790Z,2.10
2023-03-30T14:06:28.444Z,2.22
2023-03-30T14:09:00.976Z,1.60
2023-03-30T14:11:34.072Z,1.67
2023-03-30T14:14:03.256Z,1.83
2023-03-30T14:16:35.401Z,1.42
2023-03-30T14:19:10.441Z,1.77
2023-03-30T14:21:39.459Z,1.83
2023-03-30T14:24:10.312Z,2.58
2023-03-30T14:26:41.195Z,2.25
2023-03-30T14:29:13.355Z,2.20
2023-03-30T14:31:56.738Z,2.00
2023-03-30T14:34:33.655Z,2.30
2023-03-30T14:37:02.823Z,1.70
2023-03-30T14:39:31.283Z,2.60
2023-03-30T14:42:00.840Z,1.77
2023-03-30T14:44:28.765Z,1.93
2023-03-30T14:46:57.905Z,2.15
2023-03-30T14:49:28.487Z,1.77
2023-03-30T14:52:01.362Z,1.80
2023-03-30T14:54:30.250Z,1.80
2023-03-30T14:56:59.045Z,1.60
2023-03-30T14:59:28.644Z,1.50
2023-03-30T15:01:56.845Z,1.40
2023-03-30T15:04:30.410Z,1.48
2023-03-30T15:06:59.829Z,1.30
2023-03-30T15:09:27.659Z,1.48
2023-03-30T15:11:58.120Z,1.40
2023-03-30T15:14:27.399Z,1.30
2023-03-30T15:16:57.467Z,1.60
2023-03-30T15:19:29.671Z,1.35
2023-03-30T15:21:59.718Z,1.35
2023-03-30T15:24:31.800Z,1.42
2023-03-30T15:27:03.315Z,1.45
2023-03-30T15:29:31.318Z,1.80
2023-03-30T15:32:06.331Z,1.77
2023-03-30T15:34:35.512Z,1.80
2023-03-30T15:37:03.210Z,2.13
2023-03-30T15:39:34.900Z,2.38
2023-03-30T15:42:04.461Z,1.70
2023-03-30T15:44:35.381Z,1.85
2023-03-30T15:47:04.050Z,1.75
2023-03-30T15:49:36.406Z,1.80
2023-03-30T15:52:10.419Z,1.80
2023-03-30T15:54:40.384Z,1.85
2023-03-30T15:57:15.020Z,1.52
2023-03-30T15:59:46.372Z,1.45
2023-03-30T16:02:16.092Z,1.95
2023-03-30T16:04:44.388Z,2.33
2023-03-30T16:07:17.784Z,2.03
2023-03-30T16:09:45.686Z,1.70
2023-03-30T16:12:15.111Z,1.98
2023-03-30T16:17:13.044Z,2.10
2023-03-30T16:19:43.159Z,2.10
2023-03-30T16:22:12.801Z,2.90
2023-03-30T16:24:43.489Z,1.90
2023-03-30T16:27:11.796Z,2.55
2023-03-30T16:29:40.027Z,2.20
2023-03-30T16:32:08.291Z,2.30
2023-03-30T16:34:36.777Z,2.72
2023-03-30T16:37:04.707Z,2.00
2023-03-30T16:39:32.910Z,1.90
2023-03-30T16:42:02.121Z,1.88
2023-03-30T16:44:30.341Z,1.98
2023-03-30T16:46:58.474Z,1.60
2023-03-30T16:49:26.716Z,1.95
2023-03-30T16:51:57.987Z,2.30
2023-03-30T16:54:32.518Z,2.05
2023-03-30T16:57:02.437Z,1.75
2023-03-30T16:59:31.290Z,1.58
2023-03-30T17:02:00.016Z,1.98
2023-03-30T17:04:28.399Z,2.17
2023-03-30T17:06:56.255Z,2.13
2023-03-30T17:09:24.320Z,2.33
2023-03-30T17:11:52.613Z,2.47
2023-03-30T17:14:23.783Z,2.22
2023-03-30T17:16:51.608Z,2.75
2023-03-30T17:19:20.555Z,2.53
2023-03-30T17:21:48.714Z,1.98
2023-03-30T17:24:17.005Z,2.85
2023-03-30T17:26:44.769Z,2.42
2023-03-30T17:29:13.388Z,2.83
2023-03-30T17:31:45.544Z,3.35
2023-03-30T17:34:15.044Z,3.60
2023-03-30T17:36:42.857Z,3.05
2023-03-30T17:39:13.193Z,3.13
2023-03-30T17:41:42.148Z,3.08
2023-03-30T17:44:09.847Z,2.70
2023-03-30T17:46:38.029Z,2.55
2023-03-30T17:49:14.933Z,2.90
2023-03-30T17:51:42.745Z,4.00
2023-03-30T17:54:10.434Z,4.13
2023-03-30T17:56:39.096Z,4.95
2023-03-30T17:59:10.230Z,4.60
2023-03-30T18:01:38.091Z,3.97
2023-03-30T18:04:07.670Z,3.90
2023-03-30T18:06:36.565Z,3.35
2023-03-30T18:09:04.275Z,2.80
2023-03-30T18:11:32.396Z,3.03
2023-03-30T18:14:01.488Z,3.22
2023-03-30T18:16:29.311Z,2.92
2023-03-30T18:18:59.195Z,2.83
2023-03-30T18:21:29.110Z,3.10
2023-03-30T18:23:56.972Z,3.13
2023-03-30T18:28:55.402Z,3.40
2023-03-30T18:31:23.629Z,3.50
2023-03-30T18:33:53.378Z,3.05
2023-03-30T18:36:22.317Z,3.65
2023-03-30T18:38:51.454Z,3.40
2023-03-30T18:41:19.110Z,3.33
2023-03-30T18:43:46.809Z,3.47
2023-03-30T18:46:14.609Z,3.88
2023-03-30T18:48:42.783Z,3.47
2023-03-30T18:51:11.550Z,3.30
2023-03-30T18:53:39.340Z,3.35
2023-03-30T18:56:12.323Z,3.35
2023-03-30T18:58:42.125Z,3.30
2023-03-30T19:01:13.338Z,2.70
2023-03-30T19:03:41.773Z,3.08
2023-03-30T19:06:11.790Z,2.67
2023-03-30T19:08:39.461Z,2.83
2023-03-30T19:11:08.579Z,2.58
2023-03-30T19:13:37.202Z,2.50
2023-03-30T19:16:06.037Z,2.47
2023-03-30T19:18:34.687Z,2.58
2023-03-30T19:21:04.391Z,2.50
2023-03-30T19:23:32.304Z,2.80
2023-03-30T19:26:00.224Z,2.50
2023-03-30T19:28:49.840Z,2.10
2023-03-30T19:31:17.823Z,2.22
2023-03-30T19:33:45.978Z,2.30
2023-03-30T19:36:13.745Z,2.30
2023-03-30T19:38:44.419Z,2.17
2023-03-30T19:41:12.219Z,2.90
2023-03-30T19:43:39.897Z,1.80
2023-03-30T19:46:10.313Z,2.08
2023-03-30T19:48:38.904Z,2.30
2023-03-30T19:51:06.794Z,2.00
2023-03-30T19:53:36.301Z,1.52
2023-03-30T19:56:04.128Z,2.00
2023-03-30T19:58:32.358Z,2.10
2023-03-30T20:01:04.754Z,1.90
2023-03-30T20:03:35.298Z,1.95
2023-03-30T20:06:04.369Z,2.53
2023-03-30T20:08:33.316Z,2.58
2023-03-30T20:11:01.396Z,2.20
2023-03-30T20:13:29.097Z,2.10
2023-03-30T20:15:57.957Z,1.88
2023-03-30T20:18:31.180Z,2.28
2023-03-30T20:21:04.023Z,2.65
2023-03-30T20:23:33.582Z,2.55
2023-03-30T20:26:04.804Z,2.40
2023-03-30T20:28:32.585Z,2.42
2023-03-30T20:31:04.058Z,2.47
2023-03-30T20:33:37.741Z,2.40
2023-03-30T20:36:23.310Z,2.70
2023-03-30T20:38:51.768Z,2.75
2023-03-30T20:41:21.598Z,2.30
2023-03-30T20:43:56.883Z,2.20
2023-03-30T20:46:25.979Z,2.40
2023-03-30T20:48:55.457Z,1.83
2023-03-30T20:51:24.830Z,2.42
2023-03-30T20:53:52.563Z,2.08
2023-03-30T20:56:21.420Z,2.28
2023-03-30T20:58:49.146Z,1.75
2023-03-30T21:01:18.859Z,1.58
2023-03-30T21:03:50.390Z,1.50
2023-03-30T21:06:19.653Z,1.58
2023-03-30T21:08:49.911Z,1.35
2023-03-30T21:11:18.599Z,1.30
2023-03-30T21:13:46.530Z,1.58
2023-03-30T21:16:14.793Z,1.92
2023-03-30T21:18:42.980Z,1.65
2023-03-30T21:21:11.098Z,1.60
2023-03-30T21:23:40.178Z,1.50
2023-03-30T21:26:09.524Z,1.83
2023-03-30T21:28:37.771Z,1.73
2023-03-30T21:31:07.701Z,1.55
2023-03-30T21:33:36.253Z,2.00
2023-03-30T21:36:05.396Z,2.10
2023-03-30T21:38:33.858Z,1.75
2023-03-30T21:41:02.435Z,1.88
2023-03-30T21:43:32.175Z,2.00
2023-03-30T21:46:02.965Z,2.00
2023-03-30T21:48:32.111Z,1.98
2023-03-30T21:51:01.077Z,1.90
2023-03-30T21:53:29.372Z,2.25
2023-03-30T21:55:57.429Z,1.90
2023-03-30T21:58:25.648Z,1.90
2023-03-30T22:01:09.041Z,1.73
2023-03-30T22:03:40.167Z,2.25
2023-03-30T22:06:09.206Z,1.67
2023-03-30T22:08:37.244Z,1.73
2023-03-30T22:11:06.194Z,2.70
2023-03-30T22:13:35.326Z,1.55
2023-03-30T22:16:06.053Z,1.95
2023-03-30T22:18:35.162Z,2.75
2023-03-30T22:21:04.192Z,1.92
2023-03-30T22:23:32.533Z,1.63
2023-03-30T22:26:00.491Z,2.17
2023-03-30T22:28:29.185Z,1.85
2023-03-30T22:30:56.945Z,1.95
2023-03-30T22:33:27.921Z,1.67
2023-03-30T22:35:57.468Z,2.05
2023-03-30T22:38:25.424Z,1.48
2023-03-30T22:41:03.872Z,1.75
2023-03-30T22:43:34.436Z,1.50
2023-03-30T22:46:02.914Z,1.45
2023-03-30T22:48:33.354Z,1.58
2023-03-30T22:53:33.997Z,1.45
2023-03-30T22:56:01.907Z,1.40
2023-03-30T22:58:30.563Z,1.77
2023-03-30T23:01:02.108Z,2.05
2023-03-30T23:03:31.132Z,1.67
2023-03-30T23:06:01.292Z,1.50
2023-03-30T23:08:31.021Z,1.25
2023-03-30T23:11:04.571Z,1.40
2023-03-30T23:13:32.782Z,1.38
2023-03-30T23:16:01.544Z,1.30
2023-03-30T23:18:29.903Z,1.20
2023-03-30T23:20:58.074Z,1.00
2023-03-30T23:23:27.622Z,1.20
2023-03-30T23:25:55.759Z,1.73
2023-03-30T23:28:23.490Z,1.02
2023-03-30T23:30:51.261Z,1.23
2023-03-30T23:33:20.058Z,1.40
2023-03-30T23:35:49.315Z,1.23
2023-03-30T23:38:17.158Z,1.27
2023-03-30T23:40:46.903Z,1.20
2023-03-30T23:45:44.102Z,1.30
2023-03-30T23:48:11.903Z,1.33
2023-03-30T23:50:39.614Z,1.00
2023-03-30T23:53:08.412Z,1.13
2023-03-30T23:55:36.131Z,1.00
2023-03-30T23:58:05.955Z,0.82
